createdAt,value
2023-03-29T00:03:52.048Z,3.30
2023-03-29T00:08:56.582Z,2.70
2023-03-29T00:13:58.174Z,3.60
2023-03-29T00:18:59.765Z,3.20
2023-03-29T00:24:01.526Z,4.10
2023-03-29T00:29:03.590Z,3.00
2023-03-29T00:34:05.115Z,2.60
2023-03-29T00:39:06.993Z,3.50
2023-03-29T00:44:47.542Z,3.00
2023-03-29T00:49:50.529Z,2.70
2023-03-29T00:54:55.205Z,3.00
2023-03-29T00:59:58.737Z,3.20
2023-03-29T01:05:10.498Z,2.80
2023-03-29T01:10:27.214Z,3.40
2023-03-29T01:15:29.457Z,3.40
2023-03-29T01:20:38.795Z,2.40
2023-03-29T01:26:13.043Z,2.70
2023-03-29T01:31:26.845Z,2.70
2023-03-29T01:36:38.788Z,2.90
2023-03-29T01:41:53.968Z,3.00
2023-03-29T01:47:08.717Z,3.60
2023-03-29T01:52:19.090Z,2.50
2023-03-29T01:57:25.180Z,3.00
2023-03-29T02:02:31.015Z,2.90
2023-03-29T02:07:37.472Z,3.00
2023-03-29T02:12:39.449Z,2.70
2023-03-29T02:17:42.756Z,2.30
2023-03-29T02:22:57.065Z,1.70
2023-03-29T02:28:01.830Z,2.50
2023-03-29T02:33:15.767Z,2.60
2023-03-29T02:38:17.361Z,2.30
2023-03-29T02:43:22.634Z,3.10
2023-03-29T02:48:28.274Z,3.30
2023-03-29T02:53:41.427Z,3.10
2023-03-29T02:58:42.927Z,3.30
2023-03-29T03:03:45.367Z,3.60
2023-03-29T03:08:47.090Z,3.60
2023-03-29T03:13:48.592Z,3.40
2023-03-29T03:18:51.893Z,4.00
2023-03-29T03:23:54.893Z,3.70
2023-03-29T03:28:57.801Z,3.50
2023-03-29T03:33:59.926Z,3.90
2023-03-29T03:39:03.186Z,3.30
2023-03-29T03:44:04.879Z,3.80
2023-03-29T03:49:06.385Z,4.10
2023-03-29T03:54:08.119Z,4.10
2023-03-29T03:59:09.629Z,4.70
2023-03-29T04:04:12.178Z,4.40
2023-03-29T04:09:13.782Z,3.90
2023-03-29T04:14:15.292Z,5.50
2023-03-29T04:19:16.862Z,4.60
2023-03-29T04:24:18.375Z,5.20
2023-03-29T04:29:20.058Z,5.10
2023-03-29T04:34:21.611Z,4.70
2023-03-29T04:39:23.084Z,4.50
2023-03-29T04:44:24.582Z,5.20
2023-03-29T04:49:26.918Z,4.80
2023-03-29T04:54:28.443Z,4.50
2023-03-29T04:59:30.865Z,3.70
2023-03-29T05:04:33.097Z,3.30
2023-03-29T05:09:35.701Z,2.70
2023-03-29T05:14:37.302Z,3.20
2023-03-29T05:19:38.837Z,3.80
2023-03-29T05:24:40.400Z,3.70
2023-03-29T05:29:41.898Z,3.80
2023-03-29T05:34:43.555Z,3.80
2023-03-29T05:39:45.435Z,3.70
2023-03-29T05:44:46.927Z,3.30
2023-03-29T05:49:48.435Z,3.20
2023-03-29T05:54:50.673Z,3.00
2023-03-29T05:59:52.181Z,3.90
2023-03-29T06:04:55.559Z,3.70
2023-03-29T06:09:57.090Z,2.50
2023-03-29T06:15:04.134Z,3.10
2023-03-29T06:20:10.853Z,3.50
2023-03-29T06:25:12.563Z,3.50
2023-03-29T06:30:15.703Z,2.80
2023-03-29T06:35:18.056Z,3.20
2023-03-29T06:40:21.392Z,2.60
2023-03-29T06:45:25.314Z,3.20
2023-03-29T06:50:29.408Z,2.60
2023-03-29T06:55:31.780Z,3.30
2023-03-29T07:00:35.884Z,2.80
2023-03-29T07:05:40.859Z,3.60
2023-03-29T07:10:48.018Z,2.90
2023-03-29T07:15:49.545Z,2.30
2023-03-29T07:20:52.485Z,3.10
2023-03-29T07:25:54.457Z,2.70
2023-03-29T07:31:06.929Z,2.20
2023-03-29T07:36:09.078Z,2.00
2023-03-29T07:41:11.051Z,2.40
2023-03-29T07:46:12.624Z,2.30
2023-03-29T07:51:14.484Z,2.20
2023-03-29T07:56:16.420Z,2.30
2023-03-29T08:01:20.097Z,2.00
2023-03-29T08:06:22.598Z,2.50
2023-03-29T08:11:25.185Z,2.50
2023-03-29T08:16:27.185Z,1.70
2023-03-29T08:21:28.951Z,1.80
2023-03-29T08:26:31.146Z,1.10
2023-03-29T08:31:33.727Z,1.50
2023-03-29T08:36:35.267Z,1.80
2023-03-29T08:41:42.656Z,1.80
2023-03-29T08:46:57.484Z,1.80
2023-03-29T08:52:02.571Z,1.10
2023-03-29T08:57:15.569Z,1.30
2023-03-29T09:02:26.425Z,1.10
2023-03-29T09:07:28.176Z,1.20
2023-03-29T09:12:54.916Z,1.00
2023-03-29T09:18:21.270Z,0.90
2023-03-29T09:23:42.016Z,0.80
2023-03-29T09:28:59.993Z,0.90
2023-03-29T09:34:13.651Z,0.90
2023-03-29T09:39:17.009Z,1.00
2023-03-29T09:44:31.238Z,1.10
2023-03-29T09:49:38.551Z,1.40
2023-03-29T09:54:41.168Z,1.40
2023-03-29T09:59:43.814Z,1.40
2023-03-29T10:04:45.426Z,1.40
2023-03-29T10:09:50.960Z,2.60
2023-03-29T10:14:54.417Z,1.80
2023-03-29T10:19:58.410Z,1.90
2023-03-29T10:25:00.029Z,1.90
2023-03-29T10:30:12.325Z,1.90
2023-03-29T10:35:23.930Z,2.00
2023-03-29T10:40:25.366Z,2.70
2023-03-29T10:45:31.338Z,2.00
2023-03-29T10:50:37.533Z,2.10
2023-03-29T10:55:53.420Z,2.00
2023-03-29T11:00:57.155Z,2.50
2023-03-29T11:06:21.996Z,1.80
2023-03-29T11:11:58.377Z,2.30
2023-03-29T11:17:20.826Z,2.30
2023-03-29T11:22:31.712Z,2.20
2023-03-29T11:27:44.925Z,2.40
2023-03-29T11:33:14.284Z,2.00
2023-03-29T11:38:45.316Z,2.30
2023-03-29T11:43:56.912Z,2.40
2023-03-29T11:49:39.660Z,2.20
2023-03-29T11:55:04.001Z,2.40
2023-03-29T12:00:49.948Z,2.60
2023-03-29T12:06:16.915Z,3.30
2023-03-29T12:11:40.702Z,2.40
2023-03-29T12:16:48.815Z,2.80
2023-03-29T12:21:54.551Z,2.50
2023-03-29T12:27:26.183Z,2.80
2023-03-29T12:32:47.101Z,2.40
2023-03-29T12:37:56.811Z,2.60
2023-03-29T12:43:04.402Z,2.80
2023-03-29T12:48:07.797Z,2.70
2023-03-29T12:53:26.827Z,2.60
2023-03-29T12:59:07.733Z,2.60
2023-03-29T13:04:20.719Z,2.60
2023-03-29T13:09:53.270Z,3.00
2023-03-29T13:15:07.605Z,3.00
2023-03-29T13:20:59.644Z,3.10
2023-03-29T13:26:14.831Z,3.10
2023-03-29T13:31:38.845Z,2.80
2023-03-29T13:37:28.355Z,2.90
2023-03-29T13:42:36.401Z,6.00
2023-03-29T13:47:48.911Z,3.90
2023-03-29T13:53:27.979Z,3.00
2023-03-29T13:58:43.245Z,3.80
2023-03-29T14:03:47.539Z,2.80
2023-03-29T14:08:49.958Z,5.00
2023-03-29T14:13:57.125Z,3.60
2023-03-29T14:19:02.862Z,3.50
2023-03-29T14:24:04.445Z,3.70
2023-03-29T14:29:10.050Z,7.30
2023-03-29T14:34:15.021Z,2.80
2023-03-29T14:39:19.531Z,2.50
2023-03-29T14:44:24.162Z,2.60
2023-03-29T14:49:26.429Z,3.00
2023-03-29T14:54:34.317Z,3.10
2023-03-29T14:59:38.347Z,2.70
2023-03-29T15:04:39.854Z,3.10
2023-03-29T15:09:41.495Z,3.30
2023-03-29T15:14:43.316Z,3.40
2023-03-29T15:19:44.817Z,2.60
2023-03-29T15:24:48.910Z,2.60
2023-03-29T15:30:01.383Z,3.10
2023-03-29T15:35:06.344Z,3.70
2023-03-29T15:40:16.434Z,6.10
2023-03-29T15:45:21.372Z,3.50
2023-03-29T15:50:23.443Z,3.00
2023-03-29T15:55:26.464Z,3.60
2023-03-29T16:00:28.751Z,3.40
2023-03-29T16:05:30.592Z,2.60
2023-03-29T16:10:32.153Z,2.80
2023-03-29T16:15:36.796Z,4.00
2023-03-29T16:20:38.428Z,2.80
2023-03-29T16:25:40.769Z,2.90
2023-03-29T16:30:43.469Z,3.00
2023-03-29T16:35:45.209Z,2.80
2023-03-29T16:40:47.590Z,3.10
2023-03-29T16:45:49.136Z,3.60
2023-03-29T16:50:50.944Z,3.90
2023-03-29T16:55:52.586Z,4.20
2023-03-29T17:00:54.523Z,8.00
2023-03-29T17:05:58.041Z,6.30
2023-03-29T17:11:00.033Z,11.20
2023-03-29T17:16:01.978Z,11.40
2023-03-29T17:21:04.494Z,9.20
2023-03-29T17:26:07.081Z,9.70
2023-03-29T17:31:08.836Z,8.20
2023-03-29T17:36:11.155Z,5.70
2023-03-29T17:41:12.856Z,7.70
2023-03-29T17:46:16.666Z,6.30
2023-03-29T17:51:20.124Z,5.80
2023-03-29T17:56:23.033Z,7.20
2023-03-29T18:01:25.425Z,6.00
2023-03-29T18:06:29.188Z,21.70
2023-03-29T18:11:31.190Z,9.70
2023-03-29T18:16:33.928Z,26.90
2023-03-29T18:21:37.190Z,13.10
2023-03-29T18:26:39.580Z,17.90
2023-03-29T18:31:41.323Z,15.10
2023-03-29T18:36:43.334Z,29.70
2023-03-29T18:41:45.230Z,38.30
2023-03-29T18:46:49.830Z,75.40
2023-03-29T18:51:51.672Z,154.40
2023-03-29T18:56:53.415Z,138.60
2023-03-29T19:01:57.746Z,52.20
2023-03-29T19:07:01.733Z,44.30
2023-03-29T19:12:03.907Z,21.20
2023-03-29T19:17:05.415Z,13.90
2023-03-29T19:22:07.053Z,13.20
2023-03-29T19:27:11.345Z,14.80
2023-03-29T19:32:14.216Z,17.90
2023-03-29T19:37:17.672Z,22.20
2023-03-29T19:42:19.190Z,21.00
2023-03-29T19:47:21.241Z,21.50
2023-03-29T19:52:24.506Z,14.50
2023-03-29T19:57:26.278Z,14.00
2023-03-29T20:02:27.807Z,11.20
2023-03-29T20:07:29.761Z,8.90
2023-03-29T20:12:32.056Z,8.60
2023-03-29T20:17:35.547Z,8.30
2023-03-29T20:22:42.109Z,7.60
2023-03-29T20:27:45.416Z,7.50
2023-03-29T20:32:47.177Z,7.90
2023-03-29T20:37:48.893Z,8.70
2023-03-29T20:42:50.946Z,8.80
2023-03-29T20:48:01.972Z,15.50
2023-03-29T20:53:06.280Z,10.40
2023-03-29T20:58:07.882Z,9.60
2023-03-29T21:03:09.924Z,8.50
2023-03-29T21:08:11.689Z,10.00
2023-03-29T21:13:13.265Z,7.70
2023-03-29T21:18:15.762Z,12.60
2023-03-29T21:23:17.340Z,11.30
2023-03-29T21:28:18.936Z,10.40
2023-03-29T21:33:21.081Z,12.30
2023-03-29T21:38:23.030Z,13.30
2023-03-29T21:43:24.577Z,12.10
2023-03-29T21:48:26.489Z,13.30
2023-03-29T21:53:28.291Z,12.70
2023-03-29T21:58:29.846Z,11.20
2023-03-29T22:03:31.393Z,11.40
2023-03-29T22:08:33.036Z,12.80
2023-03-29T22:13:36.401Z,10.30
2023-03-29T22:18:44.198Z,9.50
2023-03-29T22:23:48.469Z,10.10
2023-03-29T22:28:51.787Z,6.40
2023-03-29T22:33:54.065Z,6.30
2023-03-29T22:38:56.298Z,8.20
2023-03-29T22:44:01.090Z,7.20
2023-03-29T22:49:03.181Z,10.40
2023-03-29T22:54:04.809Z,12.00
2023-03-29T22:59:06.500Z,8.20
2023-03-29T23:04:08.567Z,8.90
2023-03-29T23:09:10.626Z,8.00
2023-03-29T23:14:12.125Z,9.30
2023-03-29T23:19:13.653Z,7.90
2023-03-29T23:24:18.987Z,8.50
2023-03-29T23:29:21.065Z,8.40
2023-03-29T23:34:23.075Z,8.90
2023-03-29T23:39:25.151Z,7.50
2023-03-29T23:44:26.709Z,8.30
2023-03-29T23:49:28.521Z,6.70
2023-03-29T23:54:30.517Z,6.70
2023-03-29T23:59:37.717Z,7.40
